This is the latest recevied weather packets stored in our database for station/object SP2JGY-2. If no packets are shown the sender has not sent any weather packets the latest 10 day(s).
| Time | Temp. | Humidity | Pressure | Rain* | Wind** | Luminosity | Snow |
|---|---|---|---|---|---|---|---|
| 1788404883 | 12.78° C | 93% | 1019.8 hPa | - | - | - | - |
| 1788403081 | 12.78° C | 94% | 1019.9 hPa | - | - | - | - |
| 1788402180 | 12.78° C | 94% | 1019.9 hPa | - | - | - | - |
| 1788401279 | 12.78° C | 94% | 1020 hPa | - | - | - | - |
| 1788381451 | 14.44° C | 92% | 1020.4 hPa | - | - | - | - |
| 1788377836 | 15° C | 91% | 1020.6 hPa | - | - | - | - |
| 1788373332 | 15.56° C | 88% | 1020.6 hPa | - | - | - | - |
| 1788370629 | 16.67° C | 82% | 1020.5 hPa | - | - | - | - |
| 1788363422 | 18.33° C | 73% | 1020.3 hPa | - | - | - | - |
| 1788362521 | 18.33° C | 72% | 1020.3 hPa | - | - | - | - |
| 1788361620 | 18.33° C | 71% | 1020.4 hPa | - | - | - | - |
| 1788359817 | 18.33° C | 71% | 1020.4 hPa | - | - | - | - |
| 1788358916 | 18.33° C | 70% | 1020.4 hPa | - | - | - | - |
| 1788356214 | 19.44° C | 65% | 1020.3 hPa | - | - | - | - |
| 1788355313 | 19.44° C | 65% | 1020.4 hPa | - | - | - | - |
| 1788354412 | 18.89° C | 69% | 1020.5 hPa | - | - | - | - |
| 1788352610 | 18.89° C | 77% | 1020.7 hPa | - | - | - | - |
| 1788351709 | 18.89° C | 75% | 1020.7 hPa | - | - | - | - |
| 1788349006 | 17.78° C | 84% | 1021.1 hPa | - | - | - | - |
| 1788348106 | 17.22° C | 87% | 1021.1 hPa | - | - | - | - |
| 1788347205 | 16.67° C | 87% | 1021.1 hPa | - | - | - | - |
| 1788346304 | 16.67° C | 89% | 1021.2 hPa | - | - | - | - |
| 1788345403 | 16.67° C | 88% | 1021.1 hPa | - | - | - | - |
| 1788344502 | 17.22° C | 89% | 1021 hPa | - | - | - | - |
| 1788343602 | 16.67° C | 90% | 1021.1 hPa | - | - | - | - |
* Rain since midnight (hover to see other rain measurements)
** Current wind speed in m/s (hover to see current wind gust speed)